sensor_id;sensor_type;location;lat;lon;timestamp;temperature;humidity
64012;DHT22;50211;52.768;12.124;2023-02-08T00:00:16;-3.80;99.90
64012;DHT22;50211;52.768;12.124;2023-02-08T00:02:42;-3.80;99.90
64012;DHT22;50211;52.768;12.124;2023-02-08T00:05:07;-3.90;99.90
64012;DHT22;50211;52.768;12.124;2023-02-08T00:07:33;-3.90;99.90
64012;DHT22;50211;52.768;12.124;2023-02-08T00:09:58;-3.90;99.90
64012;DHT22;50211;52.768;12.124;2023-02-08T00:12:24;-3.90;99.90
64012;DHT22;50211;52.768;12.124;2023-02-08T00:14:49;-3.90;99.90
64012;DHT22;50211;52.768;12.124;2023-02-08T00:17:15;-3.90;99.90
64012;DHT22;50211;52.768;12.124;2023-02-08T00:19:40;-3.90;99.90
64012;DHT22;50211;52.768;12.124;2023-02-08T00:22:06;-3.90;99.90
64012;DHT22;50211;52.768;12.124;2023-02-08T00:24:31;-4.10;99.90
64012;DHT22;50211;52.768;12.124;2023-02-08T00:26:57;-4.10;99.90
64012;DHT22;50211;52.768;12.124;2023-02-08T00:29:22;-4.20;99.90
64012;DHT22;50211;52.768;12.124;2023-02-08T00:31:48;-4.30;99.90
64012;DHT22;50211;52.768;12.124;2023-02-08T00:34:13;-4.40;99.90
64012;DHT22;50211;52.768;12.124;2023-02-08T00:36:39;-4.40;99.90
64012;DHT22;50211;52.768;12.124;2023-02-08T00:39:04;-4.40;99.90
64012;DHT22;50211;52.768;12.124;2023-02-08T00:41:30;-4.40;99.90
64012;DHT22;50211;52.768;12.124;2023-02-08T00:43:55;-4.40;99.90
64012;DHT22;50211;52.768;12.124;2023-02-08T00:46:21;-4.40;99.90
64012;DHT22;50211;52.768;12.124;2023-02-08T00:48:46;-4.40;99.90
64012;DHT22;50211;52.768;12.124;2023-02-08T00:51:13;-4.40;99.90
64012;DHT22;50211;52.768;12.124;2023-02-08T00:53:41;-4.30;99.90
64012;DHT22;50211;52.768;12.124;2023-02-08T00:56:08;-4.20;99.90
64012;DHT22;50211;52.768;12.124;2023-02-08T00:58:33;-4.20;99.90
64012;DHT22;50211;52.768;12.124;2023-02-08T01:00:59;-4.20;99.90
64012;DHT22;50211;52.768;12.124;2023-02-08T01:03:25;-4.20;99.90
64012;DHT22;50211;52.768;12.124;2023-02-08T01:05:51;-4.10;99.90
64012;DHT22;50211;52.768;12.124;2023-02-08T01:08:17;-4.10;99.90
64012;DHT22;50211;52.768;12.124;2023-02-08T01:10:44;-4.00;99.90
64012;DHT22;50211;52.768;12.124;2023-02-08T01:13:10;-3.90;99.90
64012;DHT22;50211;52.768;12.124;2023-02-08T01:15:36;-3.90;99.90
64012;DHT22;50211;52.768;12.124;2023-02-08T01:18:01;-3.90;99.90
64012;DHT22;50211;52.768;12.124;2023-02-08T01:20:27;-4.00;99.90
64012;DHT22;50211;52.768;12.124;2023-02-08T01:22:54;-4.00;99.90
64012;DHT22;50211;52.768;12.124;2023-02-08T01:25:20;-4.10;99.90
64012;DHT22;50211;52.768;12.124;2023-02-08T01:27:46;-4.10;99.90
64012;DHT22;50211;52.768;12.124;2023-02-08T01:30:12;-4.10;99.90
64012;DHT22;50211;52.768;12.124;2023-02-08T01:32:37;-4.20;99.90
64012;DHT22;50211;52.768;12.124;2023-02-08T01:35:03;-4.30;99.90
64012;DHT22;50211;52.768;12.124;2023-02-08T01:37:29;-4.30;99.90
64012;DHT22;50211;52.768;12.124;2023-02-08T01:39:54;-4.30;99.90
64012;DHT22;50211;52.768;12.124;2023-02-08T01:42:20;-4.30;99.90
64012;DHT22;50211;52.768;12.124;2023-02-08T01:47:51;-4.30;99.90
64012;DHT22;50211;52.768;12.124;2023-02-08T01:50:22;-4.20;99.90
64012;DHT22;50211;52.768;12.124;2023-02-08T01:52:48;-4.20;99.90
64012;DHT22;50211;52.768;12.124;2023-02-08T01:55:25;-4.20;99.90
64012;DHT22;50211;52.768;12.124;2023-02-08T01:57:54;-4.30;99.90
64012;DHT22;50211;52.768;12.124;2023-02-08T02:00:21;-4.40;99.90
64012;DHT22;50211;52.768;12.124;2023-02-08T02:02:50;-4.40;99.90
64012;DHT22;50211;52.768;12.124;2023-02-08T02:05:19;-4.40;99.90
64012;DHT22;50211;52.768;12.124;2023-02-08T02:07:45;-4.40;99.90
64012;DHT22;50211;52.768;12.124;2023-02-08T02:10:25;-4.30;99.90
64012;DHT22;50211;52.768;12.124;2023-02-08T02:12:51;-4.30;99.90
64012;DHT22;50211;52.768;12.124;2023-02-08T02:15:18;-4.20;99.90
64012;DHT22;50211;52.768;12.124;2023-02-08T02:17:43;-4.20;99.90
64012;DHT22;50211;52.768;12.124;2023-02-08T02:20:25;-4.30;99.90
64012;DHT22;50211;52.768;12.124;2023-02-08T02:23:04;-4.20;99.90
64012;DHT22;50211;52.768;12.124;2023-02-08T02:31:42;-4.20;99.90
64012;DHT22;50211;52.768;12.124;2023-02-08T02:34:21;-4.30;99.90
64012;DHT22;50211;52.768;12.124;2023-02-08T02:37:16;-4.30;99.90
64012;DHT22;50211;52.768;12.124;2023-02-08T02:40:14;-4.30;99.90
64012;DHT22;50211;52.768;12.124;2023-02-08T02:46:10;-4.40;99.90
64012;DHT22;50211;52.768;12.124;2023-02-08T02:48:52;-4.40;99.90
64012;DHT22;50211;52.768;12.124;2023-02-08T02:54:32;-4.40;99.90
64012;DHT22;50211;52.768;12.124;2023-02-08T02:57:01;-4.50;99.90
64012;DHT22;50211;52.768;12.124;2023-02-08T02:59:28;-4.60;99.90
64012;DHT22;50211;52.768;12.124;2023-02-08T03:01:56;-4.60;99.90
64012;DHT22;50211;52.768;12.124;2023-02-08T03:17:52;-4.50;99.90
64012;DHT22;50211;52.768;12.124;2023-02-08T03:20:24;-4.50;99.90
64012;DHT22;50211;52.768;12.124;2023-02-08T03:23:14;-4.40;99.90
64012;DHT22;50211;52.768;12.124;2023-02-08T03:28:34;-4.50;99.90
64012;DHT22;50211;52.768;12.124;2023-02-08T03:36:43;-4.70;99.90
64012;DHT22;50211;52.768;12.124;2023-02-08T03:39:15;-4.70;99.90
64012;DHT22;50211;52.768;12.124;2023-02-08T03:41:45;-4.70;99.90
64012;DHT22;50211;52.768;12.124;2023-02-08T03:44:17;-4.70;99.90
64012;DHT22;50211;52.768;12.124;2023-02-08T03:46:52;-4.60;99.90
64012;DHT22;50211;52.768;12.124;2023-02-08T03:49:22;-4.60;99.90
64012;DHT22;50211;52.768;12.124;2023-02-08T03:51:49;-4.70;99.90
64012;DHT22;50211;52.768;12.124;2023-02-08T03:54:18;-4.70;99.90
64012;DHT22;50211;52.768;12.124;2023-02-08T03:56:55;-4.70;99.90
64012;DHT22;50211;52.768;12.124;2023-02-08T03:59:29;-4.70;99.90
64012;DHT22;50211;52.768;12.124;2023-02-08T04:02:01;-4.60;99.90
64012;DHT22;50211;52.768;12.124;2023-02-08T04:04:35;-4.60;99.90
64012;DHT22;50211;52.768;12.124;2023-02-08T04:07:01;-4.60;99.90
64012;DHT22;50211;52.768;12.124;2023-02-08T04:09:26;-4.60;99.90
64012;DHT22;50211;52.768;12.124;2023-02-08T04:11:52;-4.60;99.90
64012;DHT22;50211;52.768;12.124;2023-02-08T04:14:17;-4.70;99.90
64012;DHT22;50211;52.768;12.124;2023-02-08T04:16:43;-4.60;99.90
64012;DHT22;50211;52.768;12.124;2023-02-08T04:19:08;-4.60;99.90
64012;DHT22;50211;52.768;12.124;2023-02-08T04:21:34;-4.70;99.90
64012;DHT22;50211;52.768;12.124;2023-02-08T04:23:59;-4.70;99.90
64012;DHT22;50211;52.768;12.124;2023-02-08T04:26:26;-4.70;99.90
64012;DHT22;50211;52.768;12.124;2023-02-08T04:28:51;-4.80;99.90
64012;DHT22;50211;52.768;12.124;2023-02-08T04:31:17;-4.80;99.90
64012;DHT22;50211;52.768;12.124;2023-02-08T04:33:42;-4.80;99.90
64012;DHT22;50211;52.768;12.124;2023-02-08T04:36:08;-4.80;99.90
64012;DHT22;50211;52.768;12.124;2023-02-08T04:38:34;-4.80;99.90
64012;DHT22;50211;52.768;12.124;2023-02-08T04:40:59;-4.90;99.90
64012;DHT22;50211;52.768;12.124;2023-02-08T04:43:25;-4.90;99.90
64012;DHT22;50211;52.768;12.124;2023-02-08T04:45:50;-4.90;99.90
64012;DHT22;50211;52.768;12.124;2023-02-08T04:48:16;-4.80;99.90
64012;DHT22;50211;52.768;12.124;2023-02-08T04:50:42;-4.90;99.90
64012;DHT22;50211;52.768;12.124;2023-02-08T04:53:07;-4.90;99.90
64012;DHT22;50211;52.768;12.124;2023-02-08T04:55:33;-4.90;99.90
64012;DHT22;50211;52.768;12.124;2023-02-08T04:57:59;-4.80;99.90
64012;DHT22;50211;52.768;12.124;2023-02-08T05:00:26;-4.80;99.90
64012;DHT22;50211;52.768;12.124;2023-02-08T05:02:55;-4.80;99.90
64012;DHT22;50211;52.768;12.124;2023-02-08T05:05:22;-4.80;99.90
64012;DHT22;50211;52.768;12.124;2023-02-08T05:07:48;-4.80;99.90
64012;DHT22;50211;52.768;12.124;2023-02-08T05:10:14;-4.80;99.90
64012;DHT22;50211;52.768;12.124;2023-02-08T05:12:39;-4.80;99.90
64012;DHT22;50211;52.768;12.124;2023-02-08T05:15:05;-4.90;99.90
64012;DHT22;50211;52.768;12.124;2023-02-08T05:17:31;-5.00;99.90
64012;DHT22;50211;52.768;12.124;2023-02-08T05:19:56;-5.00;99.90
64012;DHT22;50211;52.768;12.124;2023-02-08T05:22:22;-5.10;99.90
64012;DHT22;50211;52.768;12.124;2023-02-08T05:24:47;-5.10;99.90
64012;DHT22;50211;52.768;12.124;2023-02-08T05:27:13;-5.10;99.90
64012;DHT22;50211;52.768;12.124;2023-02-08T05:29:38;-5.10;99.90
64012;DHT22;50211;52.768;12.124;2023-02-08T05:32:04;-5.00;99.90
64012;DHT22;50211;52.768;12.124;2023-02-08T05:34:29;-5.00;99.90
64012;DHT22;50211;52.768;12.124;2023-02-08T05:36:55;-4.90;99.90
64012;DHT22;50211;52.768;12.124;2023-02-08T05:39:20;-4.90;99.90
64012;DHT22;50211;52.768;12.124;2023-02-08T05:41:46;-4.80;99.90
64012;DHT22;50211;52.768;12.124;2023-02-08T05:44:11;-4.80;99.90
64012;DHT22;50211;52.768;12.124;2023-02-08T05:46:37;-4.80;99.90
64012;DHT22;50211;52.768;12.124;2023-02-08T05:49:02;-4.70;99.90
64012;DHT22;50211;52.768;12.124;2023-02-08T05:51:28;-4.70;99.90
64012;DHT22;50211;52.768;12.124;2023-02-08T05:53:53;-4.70;99.90
64012;DHT22;50211;52.768;12.124;2023-02-08T05:56:19;-4.70;99.90
64012;DHT22;50211;52.768;12.124;2023-02-08T05:58:44;-4.70;99.90
64012;DHT22;50211;52.768;12.124;2023-02-08T06:01:11;-4.70;99.90
64012;DHT22;50211;52.768;12.124;2023-02-08T06:03:38;-4.70;99.90
64012;DHT22;50211;52.768;12.124;2023-02-08T06:06:05;-4.70;99.90
64012;DHT22;50211;52.768;12.124;2023-02-08T06:08:30;-4.80;99.90
64012;DHT22;50211;52.768;12.124;2023-02-08T06:10:56;-4.90;99.90
64012;DHT22;50211;52.768;12.124;2023-02-08T06:13:21;-5.00;99.90
64012;DHT22;50211;52.768;12.124;2023-02-08T06:15:47;-5.00;99.90
64012;DHT22;50211;52.768;12.124;2023-02-08T06:18:13;-5.00;99.90
64012;DHT22;50211;52.768;12.124;2023-02-08T06:20:39;-5.10;99.90
64012;DHT22;50211;52.768;12.124;2023-02-08T06:23:04;-5.00;99.90
64012;DHT22;50211;52.768;12.124;2023-02-08T06:25:30;-5.00;99.90
64012;DHT22;50211;52.768;12.124;2023-02-08T06:27:56;-5.00;99.90
64012;DHT22;50211;52.768;12.124;2023-02-08T06:30:21;-4.90;99.90
64012;DHT22;50211;52.768;12.124;2023-02-08T06:32:47;-4.80;99.90
64012;DHT22;50211;52.768;12.124;2023-02-08T06:35:12;-4.80;99.90
64012;DHT22;50211;52.768;12.124;2023-02-08T06:37:38;-4.80;99.90
64012;DHT22;50211;52.768;12.124;2023-02-08T06:40:04;-4.80;99.90
64012;DHT22;50211;52.768;12.124;2023-02-08T06:42:30;-4.80;99.90
64012;DHT22;50211;52.768;12.124;2023-02-08T06:44:55;-4.80;99.90
64012;DHT22;50211;52.768;12.124;2023-02-08T06:47:24;-4.80;99.90
64012;DHT22;50211;52.768;12.124;2023-02-08T06:49:50;-4.80;99.90
64012;DHT22;50211;52.768;12.124;2023-02-08T06:52:15;-4.90;99.90
64012;DHT22;50211;52.768;12.124;2023-02-08T06:54:41;-4.90;99.90
64012;DHT22;50211;52.768;12.124;2023-02-08T06:57:07;-4.90;99.90
64012;DHT22;50211;52.768;12.124;2023-02-08T06:59:33;-5.00;99.90
64012;DHT22;50211;52.768;12.124;2023-02-08T07:01:59;-5.10;99.90
64012;DHT22;50211;52.768;12.124;2023-02-08T07:04:24;-5.20;99.90
64012;DHT22;50211;52.768;12.124;2023-02-08T07:06:50;-5.20;99.90
64012;DHT22;50211;52.768;12.124;2023-02-08T07:09:16;-5.10;99.90
64012;DHT22;50211;52.768;12.124;2023-02-08T07:11:42;-5.10;99.90
64012;DHT22;50211;52.768;12.124;2023-02-08T07:14:11;-5.00;99.90
64012;DHT22;50211;52.768;12.124;2023-02-08T07:16:37;-4.90;99.90
64012;DHT22;50211;52.768;12.124;2023-02-08T07:19:03;-4.90;99.90
64012;DHT22;50211;52.768;12.124;2023-02-08T07:21:28;-4.90;99.90
64012;DHT22;50211;52.768;12.124;2023-02-08T07:23:54;-4.80;99.90
64012;DHT22;50211;52.768;12.124;2023-02-08T07:26:19;-4.80;99.90
64012;DHT22;50211;52.768;12.124;2023-02-08T07:28:45;-4.70;99.90
64012;DHT22;50211;52.768;12.124;2023-02-08T07:31:13;-4.60;99.90
64012;DHT22;50211;52.768;12.124;2023-02-08T07:33:38;-4.60;99.90
64012;DHT22;50211;52.768;12.124;2023-02-08T07:36:04;-4.60;99.90
64012;DHT22;50211;52.768;12.124;2023-02-08T07:38:31;-4.50;99.90
64012;DHT22;50211;52.768;12.124;2023-02-08T07:41:06;-4.40;99.90
64012;DHT22;50211;52.768;12.124;2023-02-08T07:43:35;-4.30;99.90
64012;DHT22;50211;52.768;12.124;2023-02-08T07:46:14;-4.20;99.90
64012;DHT22;50211;52.768;12.124;2023-02-08T07:48:40;-4.10;99.90
64012;DHT22;50211;52.768;12.124;2023-02-08T07:51:07;-4.00;99.90
64012;DHT22;50211;52.768;12.124;2023-02-08T07:53:32;-3.90;99.90
64012;DHT22;50211;52.768;12.124;2023-02-08T07:55:58;-3.90;99.90
64012;DHT22;50211;52.768;12.124;2023-02-08T07:58:24;-3.80;99.90
64012;DHT22;50211;52.768;12.124;2023-02-08T08:00:49;-3.60;99.90
64012;DHT22;50211;52.768;12.124;2023-02-08T08:03:15;-3.40;99.90
64012;DHT22;50211;52.768;12.124;2023-02-08T08:05:41;-3.20;99.90
64012;DHT22;50211;52.768;12.124;2023-02-08T08:08:08;-3.00;99.90
64012;DHT22;50211;52.768;12.124;2023-02-08T08:10:33;-2.70;99.90
64012;DHT22;50211;52.768;12.124;2023-02-08T08:12:59;-2.60;99.90
64012;DHT22;50211;52.768;12.124;2023-02-08T08:15:26;-2.40;99.90
64012;DHT22;50211;52.768;12.124;2023-02-08T08:17:52;-2.20;99.90
64012;DHT22;50211;52.768;12.124;2023-02-08T08:20:18;-2.10;99.90
64012;DHT22;50211;52.768;12.124;2023-02-08T08:22:44;-2.10;99.90
64012;DHT22;50211;52.768;12.124;2023-02-08T08:25:09;-1.80;99.90
64012;DHT22;50211;52.768;12.124;2023-02-08T08:27:35;-1.60;99.90
64012;DHT22;50211;52.768;12.124;2023-02-08T08:30:01;-1.50;99.90
64012;DHT22;50211;52.768;12.124;2023-02-08T08:32:26;-1.30;99.90
64012;DHT22;50211;52.768;12.124;2023-02-08T08:34:52;-1.20;99.90
64012;DHT22;50211;52.768;12.124;2023-02-08T08:37:18;-1.20;99.90
64012;DHT22;50211;52.768;12.124;2023-02-08T08:39:43;-1.10;99.90
64012;DHT22;50211;52.768;12.124;2023-02-08T08:42:09;-0.90;99.90
64012;DHT22;50211;52.768;12.124;2023-02-08T08:44:35;-0.60;99.90
64012;DHT22;50211;52.768;12.124;2023-02-08T08:47:00;-0.40;99.90
64012;DHT22;50211;52.768;12.124;2023-02-08T08:49:27;-0.10;99.90
64012;DHT22;50211;52.768;12.124;2023-02-08T08:51:53;0.20;99.90
64012;DHT22;50211;52.768;12.124;2023-02-08T08:54:19;0.40;99.90
64012;DHT22;50211;52.768;12.124;2023-02-08T08:56:45;0.60;99.90
64012;DHT22;50211;52.768;12.124;2023-02-08T08:59:11;0.70;99.90
64012;DHT22;50211;52.768;12.124;2023-02-08T09:01:36;0.90;99.90
64012;DHT22;50211;52.768;12.124;2023-02-08T09:04:03;1.10;99.90
64012;DHT22;50211;52.768;12.124;2023-02-08T09:06:29;1.30;99.90
64012;DHT22;50211;52.768;12.124;2023-02-08T09:08:54;1.60;99.90
64012;DHT22;50211;52.768;12.124;2023-02-08T09:11:20;1.50;99.90
64012;DHT22;50211;52.768;12.124;2023-02-08T09:13:45;1.40;99.90
64012;DHT22;50211;52.768;12.124;2023-02-08T09:16:16;1.70;99.90
64012;DHT22;50211;52.768;12.124;2023-02-08T09:18:42;1.60;99.90
64012;DHT22;50211;52.768;12.124;2023-02-08T09:21:10;1.60;99.90
64012;DHT22;50211;52.768;12.124;2023-02-08T09:23:36;1.20;99.90
64012;DHT22;50211;52.768;12.124;2023-02-08T09:26:09;0.90;99.90
64012;DHT22;50211;52.768;12.124;2023-02-08T09:28:35;0.70;99.90
64012;DHT22;50211;52.768;12.124;2023-02-08T09:31:18;0.60;99.90
64012;DHT22;50211;52.768;12.124;2023-02-08T09:33:44;0.50;99.90
64012;DHT22;50211;52.768;12.124;2023-02-08T09:36:10;0.30;99.90
64012;DHT22;50211;52.768;12.124;2023-02-08T09:38:38;0.20;99.90
64012;DHT22;50211;52.768;12.124;2023-02-08T09:41:35;0.20;99.90
64012;DHT22;50211;52.768;12.124;2023-02-08T09:44:33;0.30;99.90
64012;DHT22;50211;52.768;12.124;2023-02-08T09:47:05;0.30;99.90
64012;DHT22;50211;52.768;12.124;2023-02-08T09:49:38;0.70;99.90
64012;DHT22;50211;52.768;12.124;2023-02-08T09:52:15;0.80;99.90
64012;DHT22;50211;52.768;12.124;2023-02-08T09:54:54;1.20;99.90
64012;DHT22;50211;52.768;12.124;2023-02-08T09:57:26;1.50;99.90
64012;DHT22;50211;52.768;12.124;2023-02-08T10:00:03;1.80;99.90
64012;DHT22;50211;52.768;12.124;2023-02-08T10:02:33;2.10;99.90
64012;DHT22;50211;52.768;12.124;2023-02-08T10:05:03;2.50;99.90
64012;DHT22;50211;52.768;12.124;2023-02-08T10:07:29;2.90;99.90
64012;DHT22;50211;52.768;12.124;2023-02-08T10:09:59;3.10;99.90
64012;DHT22;50211;52.768;12.124;2023-02-08T10:12:36;3.20;99.90
64012;DHT22;50211;52.768;12.124;2023-02-08T10:18:18;3.40;99.90
64012;DHT22;50211;52.768;12.124;2023-02-08T10:20:58;3.40;99.90
64012;DHT22;50211;52.768;12.124;2023-02-08T10:23:47;3.40;99.90
64012;DHT22;50211;52.768;12.124;2023-02-08T10:26:43;3.40;99.90
64012;DHT22;50211;52.768;12.124;2023-02-08T10:32:14;3.80;99.90
64012;DHT22;50211;52.768;12.124;2023-02-08T10:34:58;3.90;99.90
64012;DHT22;50211;52.768;12.124;2023-02-08T10:37:43;3.80;99.90
64012;DHT22;50211;52.768;12.124;2023-02-08T10:42:48;4.00;99.90
64012;DHT22;50211;52.768;12.124;2023-02-08T10:48:27;4.10;99.90
64012;DHT22;50211;52.768;12.124;2023-02-08T10:50:54;4.00;99.90
64012;DHT22;50211;52.768;12.124;2023-02-08T10:53:19;4.10;99.90
64012;DHT22;50211;52.768;12.124;2023-02-08T10:55:46;4.10;99.90
64012;DHT22;50211;52.768;12.124;2023-02-08T10:58:20;4.10;99.90
64012;DHT22;50211;52.768;12.124;2023-02-08T11:00:47;4.30;99.90
64012;DHT22;50211;52.768;12.124;2023-02-08T11:03:23;4.40;99.90
64012;DHT22;50211;52.768;12.124;2023-02-08T11:05:50;4.50;99.90
64012;DHT22;50211;52.768;12.124;2023-02-08T11:08:24;4.30;99.90
64012;DHT22;50211;52.768;12.124;2023-02-08T11:11:07;4.40;99.90
64012;DHT22;50211;52.768;12.124;2023-02-08T11:13:44;4.50;99.90
64012;DHT22;50211;52.768;12.124;2023-02-08T11:16:21;4.60;99.90
64012;DHT22;50211;52.768;12.124;2023-02-08T11:21:27;4.20;99.90
64012;DHT22;50211;52.768;12.124;2023-02-08T11:23:55;4.20;99.90
64012;DHT22;50211;52.768;12.124;2023-02-08T11:26:31;4.40;99.90
64012;DHT22;50211;52.768;12.124;2023-02-08T11:31:27;4.40;99.90
64012;DHT22;50211;52.768;12.124;2023-02-08T11:36:25;4.60;99.90
64012;DHT22;50211;52.768;12.124;2023-02-08T11:38:50;4.70;99.90
64012;DHT22;50211;52.768;12.124;2023-02-08T11:41:18;4.70;99.90
64012;DHT22;50211;52.768;12.124;2023-02-08T11:44:04;4.60;99.90
64012;DHT22;50211;52.768;12.124;2023-02-08T11:46:33;4.60;99.90
64012;DHT22;50211;52.768;12.124;2023-02-08T11:49:00;4.80;99.90
64012;DHT22;50211;52.768;12.124;2023-02-08T11:51:31;5.00;99.90
64012;DHT22;50211;52.768;12.124;2023-02-08T11:53:57;5.10;99.90
64012;DHT22;50211;52.768;12.124;2023-02-08T11:56:27;5.40;99.90
64012;DHT22;50211;52.768;12.124;2023-02-08T11:58:57;5.00;99.90
64012;DHT22;50211;52.768;12.124;2023-02-08T12:01:26;5.20;99.90
64012;DHT22;50211;52.768;12.124;2023-02-08T12:03:53;5.30;99.90
64012;DHT22;50211;52.768;12.124;2023-02-08T12:14:48;6.30;99.90
64012;DHT22;50211;52.768;12.124;2023-02-08T12:17:34;6.60;99.90
64012;DHT22;50211;52.768;12.124;2023-02-08T12:20:23;6.90;99.90
64012;DHT22;50211;52.768;12.124;2023-02-08T12:23:00;7.00;99.90
64012;DHT22;50211;52.768;12.124;2023-02-08T12:25:42;7.10;99.90
64012;DHT22;50211;52.768;12.124;2023-02-08T12:31:29;7.60;99.90
64012;DHT22;50211;52.768;12.124;2023-02-08T12:54:25;7.80;99.90
64012;DHT22;50211;52.768;12.124;2023-02-08T12:56:54;7.50;99.90
64012;DHT22;50211;52.768;12.124;2023-02-08T12:59:33;7.50;99.90
64012;DHT22;50211;52.768;12.124;2023-02-08T13:02:03;7.30;99.90
64012;DHT22;50211;52.768;12.124;2023-02-08T13:04:42;7.10;99.90
64012;DHT22;50211;52.768;12.124;2023-02-08T13:07:17;7.30;99.90
64012;DHT22;50211;52.768;12.124;2023-02-08T13:09:55;7.30;99.90
64012;DHT22;50211;52.768;12.124;2023-02-08T13:12:49;7.20;99.90
64012;DHT22;50211;52.768;12.124;2023-02-08T13:18:26;7.50;99.90
64012;DHT22;50211;52.768;12.124;2023-02-08T13:21:00;7.60;99.90
64012;DHT22;50211;52.768;12.124;2023-02-08T13:23:29;7.40;99.90
64012;DHT22;50211;52.768;12.124;2023-02-08T13:26:00;7.20;99.90
64012;DHT22;50211;52.768;12.124;2023-02-08T13:28:27;7.40;99.90
64012;DHT22;50211;52.768;12.124;2023-02-08T13:30:58;6.90;99.90
64012;DHT22;50211;52.768;12.124;2023-02-08T13:33:44;6.70;99.90
64012;DHT22;50211;52.768;12.124;2023-02-08T13:36:24;6.60;99.90
64012;DHT22;50211;52.768;12.124;2023-02-08T13:38:51;6.60;99.90
64012;DHT22;50211;52.768;12.124;2023-02-08T13:41:22;6.40;99.90
64012;DHT22;50211;52.768;12.124;2023-02-08T13:44:02;6.10;99.90
64012;DHT22;50211;52.768;12.124;2023-02-08T13:46:44;6.00;99.90
64012;DHT22;50211;52.768;12.124;2023-02-08T14:00:34;5.70;99.90
64012;DHT22;50211;52.768;12.124;2023-02-08T14:03:20;6.00;99.90
64012;DHT22;50211;52.768;12.124;2023-02-08T14:05:58;6.20;99.90
64012;DHT22;50211;52.768;12.124;2023-02-08T14:08:51;6.20;99.90
64012;DHT22;50211;52.768;12.124;2023-02-08T14:11:41;6.10;99.90
64012;DHT22;50211;52.768;12.124;2023-02-08T14:14:20;6.10;99.90
64012;DHT22;50211;52.768;12.124;2023-02-08T14:19:33;5.80;99.90
64012;DHT22;50211;52.768;12.124;2023-02-08T14:22:04;6.20;99.90
64012;DHT22;50211;52.768;12.124;2023-02-08T14:32:45;4.70;99.90
64012;DHT22;50211;52.768;12.124;2023-02-08T14:37:41;5.10;99.90
64012;DHT22;50211;52.768;12.124;2023-02-08T14:42:57;5.30;99.90
64012;DHT22;50211;52.768;12.124;2023-02-08T14:47:56;4.50;99.90
64012;DHT22;50211;52.768;12.124;2023-02-08T14:50:29;4.40;99.90
64012;DHT22;50211;52.768;12.124;2023-02-08T14:53:04;4.10;99.90
64012;DHT22;50211;52.768;12.124;2023-02-08T14:58:14;3.80;99.90
64012;DHT22;50211;52.768;12.124;2023-02-08T15:00:44;3.60;99.90
64012;DHT22;50211;52.768;12.124;2023-02-08T15:03:13;3.40;99.90
64012;DHT22;50211;52.768;12.124;2023-02-08T15:05:56;3.20;99.90
64012;DHT22;50211;52.768;12.124;2023-02-08T15:08:26;2.90;99.90
64012;DHT22;50211;52.768;12.124;2023-02-08T15:10:51;2.60;99.90
64012;DHT22;50211;52.768;12.124;2023-02-08T15:13:21;2.40;99.90
64012;DHT22;50211;52.768;12.124;2023-02-08T15:15:51;2.20;99.90
64012;DHT22;50211;52.768;12.124;2023-02-08T15:18:21;2.10;99.90
64012;DHT22;50211;52.768;12.124;2023-02-08T15:21:03;2.10;99.90
64012;DHT22;50211;52.768;12.124;2023-02-08T15:23:29;2.10;99.90
64012;DHT22;50211;52.768;12.124;2023-02-08T15:26:19;2.00;99.90
64012;DHT22;50211;52.768;12.124;2023-02-08T15:28:45;1.90;99.90
64012;DHT22;50211;52.768;12.124;2023-02-08T15:31:20;1.80;99.90
64012;DHT22;50211;52.768;12.124;2023-02-08T15:33:47;1.70;99.90
64012;DHT22;50211;52.768;12.124;2023-02-08T15:36:16;1.60;99.90
64012;DHT22;50211;52.768;12.124;2023-02-08T15:38:43;1.60;99.90
64012;DHT22;50211;52.768;12.124;2023-02-08T15:41:27;1.40;99.90
64012;DHT22;50211;52.768;12.124;2023-02-08T15:44:21;1.20;99.90
64012;DHT22;50211;52.768;12.124;2023-02-08T15:46:48;1.10;99.90
64012;DHT22;50211;52.768;12.124;2023-02-08T15:49:21;1.00;99.90
64012;DHT22;50211;52.768;12.124;2023-02-08T15:51:48;0.90;99.90
64012;DHT22;50211;52.768;12.124;2023-02-08T15:54:17;0.80;99.90
64012;DHT22;50211;52.768;12.124;2023-02-08T15:56:51;0.70;99.90
64012;DHT22;50211;52.768;12.124;2023-02-08T15:59:22;0.70;99.90
64012;DHT22;50211;52.768;12.124;2023-02-08T16:01:49;0.60;99.90
64012;DHT22;50211;52.768;12.124;2023-02-08T16:04:15;0.60;99.90
64012;DHT22;50211;52.768;12.124;2023-02-08T16:06:58;0.50;99.90
64012;DHT22;50211;52.768;12.124;2023-02-08T16:09:28;0.50;99.90
64012;DHT22;50211;52.768;12.124;2023-02-08T16:11:58;0.40;99.90
64012;DHT22;50211;52.768;12.124;2023-02-08T16:14:25;0.30;99.90
64012;DHT22;50211;52.768;12.124;2023-02-08T16:16:53;0.30;99.90
64012;DHT22;50211;52.768;12.124;2023-02-08T16:19:28;0.20;99.90
64012;DHT22;50211;52.768;12.124;2023-02-08T16:22:22;0.20;99.90
64012;DHT22;50211;52.768;12.124;2023-02-08T16:24:50;0.10;99.90
64012;DHT22;50211;52.768;12.124;2023-02-08T16:27:25;0.00;99.90
64012;DHT22;50211;52.768;12.124;2023-02-08T16:29:51;0.00;99.90
64012;DHT22;50211;52.768;12.124;2023-02-08T16:32:25;0.00;99.90
64012;DHT22;50211;52.768;12.124;2023-02-08T16:34:52;-0.10;99.90
64012;DHT22;50211;52.768;12.124;2023-02-08T16:37:31;-0.10;99.90
64012;DHT22;50211;52.768;12.124;2023-02-08T16:42:37;-0.30;99.90
64012;DHT22;50211;52.768;12.124;2023-02-08T16:45:12;-0.30;99.90
64012;DHT22;50211;52.768;12.124;2023-02-08T16:47:39;-0.50;99.90
64012;DHT22;50211;52.768;12.124;2023-02-08T16:50:07;-0.50;99.90
64012;DHT22;50211;52.768;12.124;2023-02-08T16:52:34;-0.60;99.90
64012;DHT22;50211;52.768;12.124;2023-02-08T16:55:00;-0.60;99.90
64012;DHT22;50211;52.768;12.124;2023-02-08T16:57:43;-0.60;99.90
64012;DHT22;50211;52.768;12.124;2023-02-08T17:00:20;-0.70;99.90
64012;DHT22;50211;52.768;12.124;2023-02-08T17:02:46;-0.80;99.90
64012;DHT22;50211;52.768;12.124;2023-02-08T17:05:12;-0.80;99.90
64012;DHT22;50211;52.768;12.124;2023-02-08T17:07:37;-0.80;99.90
64012;DHT22;50211;52.768;12.124;2023-02-08T17:10:05;-0.80;99.90
64012;DHT22;50211;52.768;12.124;2023-02-08T17:12:31;-0.80;99.90
64012;DHT22;50211;52.768;12.124;2023-02-08T17:14:57;-0.80;99.90
64012;DHT22;50211;52.768;12.124;2023-02-08T17:17:22;-0.90;99.90
64012;DHT22;50211;52.768;12.124;2023-02-08T17:19:48;-0.90;99.90
64012;DHT22;50211;52.768;12.124;2023-02-08T17:22:13;-0.90;99.90
64012;DHT22;50211;52.768;12.124;2023-02-08T17:24:39;-0.90;99.90
64012;DHT22;50211;52.768;12.124;2023-02-08T17:27:04;-1.00;99.90
64012;DHT22;50211;52.768;12.124;2023-02-08T17:29:30;-1.10;99.90
64012;DHT22;50211;52.768;12.124;2023-02-08T17:31:55;-1.10;99.90
64012;DHT22;50211;52.768;12.124;2023-02-08T17:34:21;-1.20;99.90
64012;DHT22;50211;52.768;12.124;2023-02-08T17:36:46;-1.20;99.90
64012;DHT22;50211;52.768;12.124;2023-02-08T17:39:12;-1.10;99.90
64012;DHT22;50211;52.768;12.124;2023-02-08T17:41:39;-1.20;99.90
64012;DHT22;50211;52.768;12.124;2023-02-08T17:44:05;-1.20;99.90